createdAt,value
2018-10-03T00:02:10.995Z,12.01
2018-10-03T00:04:39.349Z,11.93
2018-10-03T00:07:07.729Z,11.85
2018-10-03T00:09:36.040Z,11.79
2018-10-03T00:12:04.329Z,11.73
2018-10-03T00:14:32.687Z,11.69
2018-10-03T00:17:01.040Z,11.65
2018-10-03T00:19:29.366Z,11.63
2018-10-03T00:21:57.677Z,11.66
2018-10-03T00:24:26.002Z,11.72
2018-10-03T00:26:54.308Z,11.79
2018-10-03T00:29:22.649Z,11.86
2018-10-03T00:31:51.032Z,11.87
2018-10-03T00:34:19.416Z,11.91
2018-10-03T00:36:47.810Z,11.95
2018-10-03T00:39:16.174Z,11.99
2018-10-03T00:41:44.503Z,12.01
2018-10-03T00:44:12.895Z,12.03
2018-10-03T00:46:41.176Z,12.03
2018-10-03T00:49:09.896Z,12.04
2018-10-03T00:51:38.619Z,12.05
2018-10-03T00:54:07.026Z,12.04
2018-10-03T00:56:35.496Z,12.04
2018-10-03T00:59:03.844Z,12.04
2018-10-03T01:01:32.143Z,12.03
2018-10-03T01:04:00.474Z,12.02
2018-10-03T01:06:28.800Z,12.02
2018-10-03T01:08:57.160Z,12.01
2018-10-03T01:11:25.504Z,11.97
2018-10-03T01:13:53.873Z,11.95
2018-10-03T01:16:22.193Z,11.89
2018-10-03T01:18:50.547Z,11.85
2018-10-03T01:21:18.894Z,11.79
2018-10-03T01:23:47.238Z,11.78
2018-10-03T01:26:15.542Z,11.75
2018-10-03T01:28:43.833Z,11.72
2018-10-03T01:31:12.146Z,11.71
2018-10-03T01:33:40.469Z,11.71
2018-10-03T01:36:08.836Z,11.69
2018-10-03T01:38:37.147Z,11.67
2018-10-03T01:41:05.469Z,11.71
2018-10-03T01:43:33.774Z,11.72
2018-10-03T01:46:02.085Z,11.71
2018-10-03T01:48:30.396Z,11.72
2018-10-03T01:50:58.785Z,11.73
2018-10-03T01:53:27.251Z,11.73
2018-10-03T01:55:55.591Z,11.72
2018-10-03T01:58:23.907Z,11.72
2018-10-03T02:00:52.253Z,11.74
2018-10-03T02:03:20.612Z,11.75
2018-10-03T02:05:48.979Z,11.75
2018-10-03T02:08:17.270Z,11.75
2018-10-03T02:10:45.585Z,11.77
2018-10-03T02:13:13.915Z,11.77
2018-10-03T02:15:42.249Z,11.78
2018-10-03T02:18:10.620Z,11.77
2018-10-03T02:20:38.971Z,11.76
2018-10-03T02:23:07.275Z,11.74
2018-10-03T02:25:35.598Z,11.70
2018-10-03T02:28:03.940Z,11.63
2018-10-03T02:30:32.438Z,11.56
2018-10-03T02:33:00.756Z,11.50
2018-10-03T02:35:29.067Z,11.48
2018-10-03T02:37:57.399Z,11.48
2018-10-03T02:40:25.785Z,11.48
2018-10-03T02:42:54.145Z,11.45
2018-10-03T02:45:22.461Z,11.48
2018-10-03T02:47:52.223Z,11.49
2018-10-03T02:50:20.571Z,11.50
2018-10-03T02:52:48.900Z,11.54
2018-10-03T02:55:17.255Z,11.55
2018-10-03T02:57:45.802Z,11.56
2018-10-03T03:00:14.220Z,11.56
2018-10-03T03:02:42.532Z,11.56
2018-10-03T03:05:10.872Z,11.58
2018-10-03T03:07:39.249Z,11.62
2018-10-03T03:10:07.567Z,11.64
2018-10-03T03:12:35.871Z,11.64
2018-10-03T03:15:04.228Z,11.65
2018-10-03T03:17:32.577Z,11.66
2018-10-03T03:20:00.964Z,11.65
2018-10-03T03:22:29.268Z,11.64
2018-10-03T03:24:57.695Z,11.65
2018-10-03T03:27:25.979Z,11.64
2018-10-03T03:29:54.320Z,11.63
2018-10-03T03:32:22.648Z,11.65
2018-10-03T03:34:50.966Z,11.65
2018-10-03T03:37:19.301Z,11.65
2018-10-03T03:39:47.679Z,11.68
2018-10-03T03:42:16.014Z,11.68
2018-10-03T03:44:44.316Z,11.69
2018-10-03T03:47:12.633Z,11.67
2018-10-03T03:49:40.932Z,11.70
2018-10-03T03:52:09.280Z,11.71
2018-10-03T03:54:37.707Z,11.70
2018-10-03T03:57:06.078Z,11.71
2018-10-03T03:59:34.388Z,11.69
2018-10-03T04:02:02.721Z,11.68
2018-10-03T04:04:31.036Z,11.67
2018-10-03T04:06:59.352Z,11.66
2018-10-03T04:09:27.697Z,11.65
2018-10-03T04:11:56.060Z,11.65
2018-10-03T04:14:24.386Z,11.64
2018-10-03T04:16:52.705Z,11.64
2018-10-03T04:19:21.044Z,11.67
2018-10-03T04:21:49.328Z,11.66
2018-10-03T04:24:17.656Z,11.67
2018-10-03T04:26:45.982Z,11.68
2018-10-03T04:29:14.402Z,11.68
2018-10-03T04:31:42.836Z,11.67
2018-10-03T04:34:11.122Z,11.65
2018-10-03T04:36:39.456Z,11.68
2018-10-03T04:39:08.316Z,11.68
2018-10-03T04:41:37.331Z,11.69
2018-10-03T04:44:05.651Z,11.68
2018-10-03T04:46:34.132Z,11.64
2018-10-03T04:49:02.540Z,11.61
2018-10-03T04:51:30.793Z,11.59
2018-10-03T04:53:59.096Z,11.60
2018-10-03T04:56:27.451Z,11.60
2018-10-03T04:58:55.792Z,11.56
2018-10-03T05:01:24.077Z,11.54
2018-10-03T05:03:52.452Z,11.53
2018-10-03T05:06:20.819Z,11.55
2018-10-03T05:08:49.178Z,11.54
2018-10-03T05:11:17.587Z,11.52
2018-10-03T05:13:45.860Z,11.50
2018-10-03T05:16:14.171Z,11.48
2018-10-03T05:18:42.531Z,11.45
2018-10-03T05:21:10.895Z,11.43
2018-10-03T05:23:39.388Z,11.43
2018-10-03T05:26:07.708Z,11.38
2018-10-03T05:28:36.040Z,11.37
2018-10-03T05:31:04.372Z,11.32
2018-10-03T05:33:33.468Z,11.28
2018-10-03T05:36:01.862Z,11.25
2018-10-03T05:38:30.171Z,11.25
2018-10-03T05:40:58.512Z,11.22
2018-10-03T05:43:26.801Z,11.21
2018-10-03T05:45:55.151Z,11.20
2018-10-03T05:48:23.504Z,11.21
2018-10-03T05:50:51.799Z,11.23
2018-10-03T05:53:20.173Z,11.26
2018-10-03T05:55:48.585Z,11.30
2018-10-03T05:58:16.905Z,11.34
2018-10-03T06:00:45.213Z,11.40
2018-10-03T06:03:13.553Z,11.45
2018-10-03T06:05:41.840Z,11.48
2018-10-03T06:08:10.208Z,11.53
2018-10-03T06:10:38.528Z,11.56
2018-10-03T06:13:07.193Z,11.61
2018-10-03T06:15:35.517Z,11.66
2018-10-03T06:18:03.855Z,11.71
2018-10-03T06:20:32.192Z,11.75
2018-10-03T06:23:00.603Z,11.79
2018-10-03T06:25:28.906Z,11.82
2018-10-03T06:27:57.337Z,11.85
2018-10-03T06:30:25.643Z,11.86
2018-10-03T06:32:53.961Z,11.90
2018-10-03T06:35:22.269Z,11.94
2018-10-03T06:37:50.579Z,11.95
2018-10-03T06:40:18.916Z,11.97
2018-10-03T06:42:47.244Z,12.05
2018-10-03T06:45:15.600Z,12.14
2018-10-03T06:47:43.927Z,12.19
2018-10-03T06:50:12.271Z,12.24
2018-10-03T06:52:40.590Z,12.28
2018-10-03T06:55:09.215Z,12.35
2018-10-03T06:57:37.576Z,12.42
2018-10-03T07:00:05.965Z,12.46
2018-10-03T07:02:34.293Z,12.51
2018-10-03T07:05:02.611Z,12.58
2018-10-03T07:07:30.915Z,12.65
2018-10-03T07:09:59.255Z,12.69
2018-10-03T07:12:27.580Z,12.73
2018-10-03T07:14:55.948Z,12.75
2018-10-03T07:17:24.335Z,12.82
2018-10-03T07:19:52.652Z,12.87
2018-10-03T07:22:20.969Z,12.90
2018-10-03T07:24:49.314Z,12.93
2018-10-03T07:27:24.468Z,12.98
2018-10-03T07:29:52.871Z,13.03
2018-10-03T07:32:21.176Z,13.04
2018-10-03T07:34:49.530Z,13.00
2018-10-03T07:37:17.838Z,12.98
2018-10-03T07:39:46.196Z,13.02
2018-10-03T07:42:14.528Z,13.08
2018-10-03T07:44:42.829Z,13.17
2018-10-03T07:47:11.221Z,13.12
2018-10-03T07:49:39.551Z,13.07
2018-10-03T07:52:08.044Z,13.00
2018-10-03T07:54:36.368Z,12.99
2018-10-03T07:57:04.667Z,12.93
2018-10-03T07:59:32.959Z,12.96
2018-10-03T08:02:01.348Z,13.00
2018-10-03T08:04:29.695Z,13.06
2018-10-03T08:06:58.067Z,13.12
2018-10-03T08:09:26.404Z,13.14
2018-10-03T08:11:54.731Z,13.16
2018-10-03T08:14:23.071Z,13.21
2018-10-03T08:16:51.419Z,13.22
2018-10-03T08:19:19.753Z,13.20
2018-10-03T08:21:48.392Z,13.16
2018-10-03T08:24:16.737Z,13.15
2018-10-03T08:26:45.064Z,13.20
2018-10-03T08:29:13.399Z,13.28
2018-10-03T08:31:41.743Z,13.32
2018-10-03T08:34:10.081Z,13.36
2018-10-03T08:36:38.605Z,13.46
2018-10-03T08:39:09.659Z,13.57
2018-10-03T08:41:38.087Z,13.77
2018-10-03T08:44:06.472Z,13.90
2018-10-03T08:46:34.818Z,13.97
2018-10-03T08:49:03.161Z,14.04
2018-10-03T08:51:31.529Z,14.02
2018-10-03T08:53:59.831Z,14.02
2018-10-03T08:56:28.160Z,13.99
2018-10-03T08:58:56.432Z,13.96
2018-10-03T09:01:24.752Z,13.98
2018-10-03T09:03:53.052Z,14.04
2018-10-03T09:06:21.368Z,14.10
2018-10-03T09:08:49.685Z,14.22
2018-10-03T09:11:18.036Z,14.34
2018-10-03T09:13:46.344Z,14.52
2018-10-03T09:16:14.712Z,14.61
2018-10-03T09:18:43.038Z,14.66
2018-10-03T09:21:11.345Z,14.67
2018-10-03T09:23:39.681Z,14.63
2018-10-03T09:26:07.988Z,14.61
2018-10-03T09:28:36.318Z,14.62
2018-10-03T09:31:04.659Z,14.64
2018-10-03T09:33:32.997Z,14.64
2018-10-03T09:36:01.348Z,14.57
2018-10-03T09:38:29.709Z,14.67
2018-10-03T09:40:58.016Z,14.82
2018-10-03T09:43:26.390Z,14.97
2018-10-03T09:45:54.725Z,15.00
2018-10-03T09:48:23.007Z,14.98
2018-10-03T09:50:51.314Z,14.94
2018-10-03T09:53:19.592Z,14.92
2018-10-03T09:55:47.956Z,14.77
2018-10-03T09:58:16.236Z,14.79
2018-10-03T10:00:49.892Z,14.92
2018-10-03T10:03:18.203Z,14.86
2018-10-03T10:05:46.500Z,14.80
2018-10-03T10:08:14.844Z,14.87
2018-10-03T10:10:43.169Z,15.08
2018-10-03T10:13:11.515Z,15.03
2018-10-03T10:15:39.835Z,14.96
2018-10-03T10:18:08.160Z,15.07
2018-10-03T10:20:36.536Z,15.21
2018-10-03T10:23:04.846Z,15.27
2018-10-03T10:25:33.156Z,15.16
2018-10-03T10:28:01.484Z,15.17
2018-10-03T10:30:29.791Z,15.20
2018-10-03T10:32:58.253Z,15.20
2018-10-03T10:35:26.683Z,15.11
2018-10-03T10:37:55.033Z,15.16
2018-10-03T10:40:23.418Z,15.31
2018-10-03T10:42:51.720Z,15.42
2018-10-03T10:45:20.073Z,15.47
2018-10-03T10:47:48.460Z,15.49
2018-10-03T10:50:16.826Z,15.55
2018-10-03T10:52:45.145Z,15.69
2018-10-03T10:55:13.472Z,15.77
2018-10-03T10:57:42.008Z,15.81
2018-10-03T11:00:10.330Z,15.73
2018-10-03T11:02:38.661Z,15.62
2018-10-03T11:05:07.044Z,15.57
2018-10-03T11:07:35.523Z,15.59
2018-10-03T11:10:03.881Z,15.54
2018-10-03T11:12:32.217Z,15.49
2018-10-03T11:15:00.553Z,15.43
2018-10-03T11:17:28.845Z,15.45
2018-10-03T11:19:57.208Z,15.37
2018-10-03T11:22:25.534Z,15.47
2018-10-03T11:24:54.104Z,15.62
2018-10-03T11:27:22.260Z,15.64
2018-10-03T11:29:50.604Z,15.68
2018-10-03T11:32:18.924Z,15.69
2018-10-03T11:34:47.259Z,15.79
2018-10-03T11:37:15.571Z,15.77
2018-10-03T11:39:43.904Z,15.67
2018-10-03T11:42:12.231Z,15.54
2018-10-03T11:44:40.672Z,15.63
2018-10-03T11:47:09.021Z,15.64
2018-10-03T11:49:37.449Z,15.71
2018-10-03T11:52:05.776Z,15.82
2018-10-03T11:54:34.109Z,15.83
2018-10-03T11:57:02.521Z,15.78
2018-10-03T11:59:30.872Z,15.71
2018-10-03T12:01:59.216Z,15.63
2018-10-03T12:04:27.592Z,15.58
2018-10-03T12:06:55.910Z,15.47
2018-10-03T12:09:24.301Z,15.45
2018-10-03T12:11:52.656Z,15.61
2018-10-03T12:14:20.971Z,15.66
2018-10-03T12:16:49.286Z,15.68
2018-10-03T12:19:17.812Z,15.72
2018-10-03T12:21:46.141Z,15.63
2018-10-03T12:24:14.500Z,15.55
2018-10-03T12:26:42.846Z,15.57
2018-10-03T12:29:11.195Z,15.59
2018-10-03T12:31:39.608Z,15.49
2018-10-03T12:34:08.179Z,15.32
2018-10-03T12:36:36.463Z,15.22
2018-10-03T12:39:06.843Z,15.14
2018-10-03T12:41:35.136Z,15.05
2018-10-03T12:44:03.464Z,15.05
2018-10-03T12:46:31.856Z,15.08
2018-10-03T12:49:00.186Z,15.09
2018-10-03T12:51:28.743Z,15.18
2018-10-03T12:53:57.072Z,15.28
2018-10-03T12:56:25.375Z,15.42
2018-10-03T12:58:53.692Z,15.63
2018-10-03T13:01:22.071Z,15.87
2018-10-03T13:03:50.349Z,16.07
2018-10-03T13:06:18.675Z,16.18
2018-10-03T13:08:47.017Z,16.19
2018-10-03T13:11:15.353Z,16.19
2018-10-03T13:13:43.711Z,16.26
2018-10-03T13:16:12.572Z,16.36
2018-10-03T13:18:41.145Z,16.39
2018-10-03T13:21:09.620Z,16.36
2018-10-03T13:23:38.004Z,16.12
2018-10-03T13:26:06.337Z,15.98
2018-10-03T13:28:34.699Z,15.90
2018-10-03T13:31:03.040Z,15.78
2018-10-03T13:33:31.647Z,15.76
2018-10-03T13:35:59.988Z,15.74
2018-10-03T13:38:28.304Z,15.68
2018-10-03T13:40:56.649Z,15.58
2018-10-03T13:43:24.960Z,15.48
2018-10-03T13:45:53.351Z,15.42
2018-10-03T13:48:21.703Z,15.34
2018-10-03T13:50:50.039Z,15.33
2018-10-03T13:53:18.380Z,15.35
2018-10-03T13:55:46.737Z,15.34
2018-10-03T13:58:15.082Z,15.26
2018-10-03T14:00:43.432Z,15.16
2018-10-03T14:03:11.759Z,15.13
2018-10-03T14:05:40.051Z,15.10
2018-10-03T14:08:08.364Z,15.02
2018-10-03T14:10:36.742Z,15.09
2018-10-03T14:13:05.060Z,15.18
2018-10-03T14:15:33.424Z,15.33
2018-10-03T14:24:07.990Z,15.62
2018-10-03T14:26:36.290Z,15.59
2018-10-03T14:29:04.535Z,15.61
2018-10-03T14:31:32.746Z,15.61
2018-10-03T14:34:00.990Z,15.64
2018-10-03T14:36:29.272Z,15.65
2018-10-03T14:38:57.538Z,15.67
2018-10-03T14:41:25.799Z,15.70
2018-10-03T14:43:54.039Z,15.70
2018-10-03T14:46:22.321Z,15.70
2018-10-03T14:48:50.550Z,15.68
2018-10-03T14:51:18.793Z,15.67
2018-10-03T14:53:47.093Z,15.66
2018-10-03T14:56:15.335Z,15.63
2018-10-03T14:58:43.649Z,15.57
2018-10-03T15:01:11.853Z,15.54
2018-10-03T15:03:40.106Z,15.50
2018-10-03T15:06:08.393Z,15.38
2018-10-03T15:08:36.758Z,15.27
2018-10-03T15:11:04.991Z,15.16
2018-10-03T15:13:33.305Z,15.08
2018-10-03T15:16:01.541Z,15.04
2018-10-03T15:18:29.818Z,15.03
2018-10-03T15:20:58.021Z,15.05
2018-10-03T15:23:26.265Z,15.05
2018-10-03T15:25:54.506Z,15.04
2018-10-03T15:28:22.773Z,15.09
2018-10-03T15:30:51.029Z,15.10
2018-10-03T15:33:19.267Z,15.10
2018-10-03T15:35:47.529Z,15.09
2018-10-03T15:38:15.834Z,15.07
2018-10-03T15:40:44.062Z,15.04
2018-10-03T15:43:12.309Z,14.99
2018-10-03T15:45:40.568Z,14.95
2018-10-03T15:48:09.129Z,14.88
2018-10-03T15:50:37.469Z,14.81
2018-10-03T15:53:05.746Z,14.73
2018-10-03T15:55:33.989Z,14.68
2018-10-03T15:58:02.224Z,14.61
2018-10-03T16:00:30.475Z,14.57
2018-10-03T16:02:58.699Z,14.55
2018-10-03T16:05:26.958Z,14.48
2018-10-03T16:07:55.213Z,14.42
2018-10-03T16:10:23.506Z,14.37
2018-10-03T16:12:52.021Z,14.33
2018-10-03T16:15:20.257Z,14.30
2018-10-03T16:17:48.581Z,14.29
2018-10-03T16:20:16.828Z,14.27
2018-10-03T16:22:45.085Z,14.25
2018-10-03T16:25:14.060Z,14.20
2018-10-03T16:27:42.302Z,14.15
2018-10-03T16:30:10.551Z,14.12
2018-10-03T16:32:38.794Z,14.06
2018-10-03T16:35:07.087Z,14.01
2018-10-03T16:37:35.318Z,13.97
2018-10-03T16:40:03.567Z,13.91
2018-10-03T16:42:31.807Z,13.87
2018-10-03T16:45:00.053Z,13.82
2018-10-03T16:47:28.280Z,13.76
2018-10-03T16:49:56.622Z,13.70
2018-10-03T16:52:24.865Z,13.65
2018-10-03T16:54:53.118Z,13.60
2018-10-03T16:57:21.374Z,13.52
2018-10-03T16:59:49.618Z,13.48
2018-10-03T17:02:17.857Z,13.39
2018-10-03T17:04:46.938Z,13.30
2018-10-03T17:07:15.180Z,13.18
2018-10-03T17:09:43.487Z,13.10
2018-10-03T17:12:11.739Z,13.02
2018-10-03T17:14:41.989Z,12.92
2018-10-03T17:17:13.147Z,12.87
2018-10-03T17:19:41.383Z,12.81
2018-10-03T17:22:09.717Z,12.73
2018-10-03T17:24:38.543Z,12.67
2018-10-03T17:27:06.854Z,12.60
2018-10-03T17:29:35.318Z,12.55
2018-10-03T17:32:03.621Z,12.49
2018-10-03T17:34:31.879Z,12.41
2018-10-03T17:37:00.095Z,12.35
2018-10-03T17:39:28.926Z,12.29
2018-10-03T17:41:57.349Z,12.23
2018-10-03T17:44:25.827Z,12.17
2018-10-03T17:46:55.362Z,12.10
2018-10-03T17:49:23.588Z,12.02
2018-10-03T17:51:51.813Z,11.95
2018-10-03T17:54:20.153Z,11.91
2018-10-03T17:56:48.402Z,11.86
2018-10-03T17:59:17.224Z,11.81
2018-10-03T18:01:50.473Z,11.79
2018-10-03T18:04:18.709Z,11.74
2018-10-03T18:06:46.937Z,11.72
2018-10-03T18:09:15.246Z,11.70
2018-10-03T18:11:43.385Z,11.68
2018-10-03T18:14:11.634Z,11.66
2018-10-03T18:16:39.858Z,11.66
2018-10-03T18:19:08.172Z,11.64
2018-10-03T18:21:36.837Z,11.61
2018-10-03T18:24:05.159Z,11.58
2018-10-03T18:26:33.386Z,11.55
2018-10-03T18:29:01.646Z,11.53
2018-10-03T18:31:30.012Z,11.53
2018-10-03T18:33:58.361Z,11.50
2018-10-03T18:36:26.774Z,11.46
2018-10-03T18:38:55.100Z,11.44
2018-10-03T18:41:26.551Z,11.41
2018-10-03T18:43:55.171Z,11.39
2018-10-03T18:46:23.557Z,11.37
2018-10-03T18:48:51.846Z,11.38
2018-10-03T18:51:20.187Z,11.39
2018-10-03T18:53:48.471Z,11.42
2018-10-03T18:56:16.790Z,11.45
2018-10-03T18:58:45.065Z,11.51
2018-10-03T19:01:13.324Z,11.57
2018-10-03T19:03:41.689Z,11.64
2018-10-03T19:06:10.022Z,11.67
2018-10-03T19:08:38.336Z,11.67
2018-10-03T19:11:06.734Z,11.69
2018-10-03T19:13:35.044Z,11.69
2018-10-03T19:16:03.289Z,11.69
2018-10-03T19:18:31.559Z,11.65
2018-10-03T19:20:59.824Z,11.62
2018-10-03T19:23:28.078Z,11.57
2018-10-03T19:25:56.378Z,11.52
2018-10-03T19:28:24.641Z,11.46
2018-10-03T19:30:52.902Z,11.41
2018-10-03T19:33:21.203Z,11.34
2018-10-03T19:35:49.560Z,11.29
2018-10-03T19:38:17.748Z,11.25
2018-10-03T19:40:46.019Z,11.23
2018-10-03T19:43:14.261Z,11.18
2018-10-03T19:45:42.579Z,11.11
2018-10-03T19:48:10.972Z,11.06
2018-10-03T19:50:39.126Z,11.02
2018-10-03T19:53:07.401Z,10.97
2018-10-03T19:55:35.669Z,10.90
2018-10-03T19:58:03.922Z,10.83
2018-10-03T20:00:32.177Z,10.79
2018-10-03T20:03:00.418Z,10.76
2018-10-03T20:05:28.696Z,10.71
2018-10-03T20:07:56.960Z,10.63
2018-10-03T20:10:25.293Z,10.60
2018-10-03T20:12:53.536Z,10.56
2018-10-03T20:15:21.813Z,10.52
2018-10-03T20:17:50.042Z,10.48
2018-10-03T20:20:18.286Z,10.45
2018-10-03T20:22:46.522Z,10.42
2018-10-03T20:25:14.833Z,10.39
2018-10-03T20:27:43.080Z,10.36
2018-10-03T20:30:11.327Z,10.33
2018-10-03T20:32:39.574Z,10.29
2018-10-03T20:35:07.837Z,10.26
2018-10-03T20:37:36.105Z,10.23
2018-10-03T20:40:04.345Z,10.21
2018-10-03T20:42:32.615Z,10.18
2018-10-03T20:45:00.944Z,10.15
2018-10-03T20:47:29.181Z,10.12
2018-10-03T20:49:57.646Z,10.11
2018-10-03T20:52:25.892Z,10.11
2018-10-03T20:54:54.165Z,10.10
2018-10-03T20:57:22.451Z,10.10
2018-10-03T20:59:50.697Z,10.12
2018-10-03T21:02:18.938Z,10.16
2018-10-03T21:04:47.193Z,10.17
2018-10-03T21:07:15.445Z,10.20
2018-10-03T21:09:43.689Z,10.20
2018-10-03T21:12:11.908Z,10.18
2018-10-03T21:14:40.178Z,10.16
2018-10-03T21:17:08.455Z,10.14
2018-10-03T21:19:36.717Z,10.14
2018-10-03T21:22:04.964Z,10.14
2018-10-03T21:24:33.238Z,10.14
2018-10-03T21:27:01.470Z,10.13
2018-10-03T21:29:29.741Z,10.11
2018-10-03T21:31:57.990Z,10.06
2018-10-03T21:34:26.320Z,10.05
2018-10-03T21:36:54.617Z,10.03
2018-10-03T21:39:22.888Z,10.00
2018-10-03T21:41:51.213Z,9.93
2018-10-03T21:44:19.505Z,9.90
2018-10-03T21:46:47.785Z,9.86
2018-10-03T21:49:16.010Z,9.80
2018-10-03T21:51:44.234Z,9.75
2018-10-03T21:54:12.470Z,9.70
2018-10-03T21:56:40.762Z,9.67
2018-10-03T21:59:09.085Z,9.64
2018-10-03T22:01:37.345Z,9.61
2018-10-03T22:04:05.590Z,9.58
2018-10-03T22:06:33.802Z,9.55
2018-10-03T22:09:02.330Z,9.53
2018-10-03T22:11:30.593Z,9.53
2018-10-03T22:13:58.816Z,9.57
2018-10-03T22:16:27.073Z,9.61
2018-10-03T22:18:55.333Z,9.66
2018-10-03T22:21:23.581Z,9.70
2018-10-03T22:23:51.838Z,9.75
2018-10-03T22:26:20.065Z,9.78
2018-10-03T22:28:48.318Z,9.83
2018-10-03T22:31:16.553Z,9.87
2018-10-03T22:33:44.757Z,9.88
2018-10-03T22:36:13.026Z,9.91
2018-10-03T22:38:41.265Z,9.93
2018-10-03T22:41:09.474Z,9.94
2018-10-03T22:43:37.809Z,9.92
2018-10-03T22:46:06.534Z,9.88
2018-10-03T22:48:34.765Z,9.84
2018-10-03T22:51:03.104Z,9.85
2018-10-03T22:53:31.327Z,9.87
2018-10-03T22:55:59.566Z,9.90
2018-10-03T22:58:27.774Z,9.93
2018-10-03T23:00:55.992Z,9.93
2018-10-03T23:03:24.302Z,9.94
2018-10-03T23:05:52.558Z,9.93
2018-10-03T23:08:20.873Z,9.91
2018-10-03T23:10:49.127Z,9.90
2018-10-03T23:13:17.389Z,9.88
2018-10-03T23:15:45.702Z,9.89
2018-10-03T23:18:13.929Z,9.91
2018-10-03T23:20:42.177Z,9.94
2018-10-03T23:23:10.450Z,9.96
2018-10-03T23:25:38.753Z,9.97
2018-10-03T23:28:07.005Z,9.97
2018-10-03T23:30:35.273Z,10.00
2018-10-03T23:33:03.497Z,10.02
2018-10-03T23:35:31.703Z,10.05
2018-10-03T23:37:59.929Z,10.10
2018-10-03T23:40:28.176Z,10.15
2018-10-03T23:42:56.421Z,10.19
2018-10-03T23:45:24.649Z,10.22
2018-10-03T23:47:52.880Z,10.28
2018-10-03T23:50:21.110Z,10.34
2018-10-03T23:52:49.388Z,10.38
2018-10-03T23:55:17.626Z,10.45
2018-10-03T23:57:45.857Z,10.49
